Time,TemperatureF,DewpointF,PressureIn,WindDirection,WindDirectionDegrees,WindSpeedMPH,WindSpeedGustMPH,Humidity,HourlyPrecipIn,Conditions,Clouds,dailyrainin,SoftwareType,DateUTC
2013-05-23 00:00:00,44.7,40.8,29.95,East,92,11.0,11.0,86,0.00,,,0.00,Wunderground v.1.15,2013-05-23 07:00:00,
2013-05-23 00:01:00,44.6,40.7,29.95,East,93,11.0,11.0,86,0.00,,,0.00,Wunderground v.1.15,2013-05-23 07:01:00,
2013-05-23 00:03:00,44.6,40.7,29.95,East,92,8.0,9.0,86,0.00,,,0.00,Wunderground v.1.15,2013-05-23 07:03:00,
2013-05-23 00:06:00,44.6,40.7,29.95,East,88,7.0,9.0,86,0.00,,,0.00,Wunderground v.1.15,2013-05-23 07:06:00,
2013-05-23 00:09:00,44.6,40.7,29.95,East,90,11.0,11.0,86,0.00,,,0.00,Wunderground v.1.15,2013-05-23 07:09:00,
2013-05-23 00:11:00,44.6,40.7,29.95,East,91,8.0,11.0,86,0.00,,,0.00,Wunderground v.1.15,2013-05-23 07:11:00,
2013-05-23 00:12:00,44.6,40.7,29.95,East,90,8.0,8.0,86,0.00,,,0.00,Wunderground v.1.15,2013-05-23 07:12:00,
2013-05-23 00:13:00,44.6,40.7,29.95,East,86,5.0,8.0,86,0.00,,,0.00,Wunderground v.1.15,2013-05-23 07:13:00,
2013-05-23 00:17:00,44.4,40.5,29.95,East,86,6.0,12.0,86,0.00,,,0.00,Wunderground v.1.15,2013-05-23 07:17:00,
2013-05-23 00:19:00,44.4,40.5,29.95,East,90,7.0,12.0,86,0.00,,,0.00,Wunderground v.1.15,2013-05-23 07:19:00,
2013-05-23 00:20:00,44.3,40.4,29.95,East,96,11.0,12.0,86,0.00,,,0.00,Wunderground v.1.15,2013-05-23 07:20:00,
2013-05-23 00:21:00,44.3,40.4,29.95,East,98,6.0,12.0,86,0.00,,,0.00,Wunderground v.1.15,2013-05-23 07:21:00,
2013-05-23 00:25:00,44.2,40.3,29.95,ESE,108,6.0,12.0,86,0.00,,,0.00,Wunderground v.1.15,2013-05-23 07:25:00,
2013-05-23 00:27:00,44.2,40.3,29.95,ESE,105,5.0,12.0,86,0.00,,,0.00,Wunderground v.1.15,2013-05-23 07:27:00,
2013-05-23 00:28:00,44.2,40.3,29.95,ESE,102,7.0,12.0,86,0.00,,,0.00,Wunderground v.1.15,2013-05-23 07:28:00,
2013-05-23 00:29:00,44.2,40.3,29.95,ESE,103,9.0,12.0,86,0.00,,,0.00,Wunderground v.1.15,2013-05-23 07:29:00,
2013-05-23 00:31:00,44.1,40.2,29.95,ESE,103,7.0,12.0,86,0.00,,,0.00,Wunderground v.1.15,2013-05-23 07:31:00,
2013-05-23 00:32:00,44.1,40.2,29.95,ESE,103,7.0,8.0,86,0.00,,,0.00,Wunderground v.1.15,2013-05-23 07:32:00,
2013-05-23 00:33:00,44.1,40.2,29.95,East,94,6.0,8.0,86,0.00,,,0.00,Wunderground v.1.15,2013-05-23 07:33:00,
2013-05-23 00:37:00,44.0,40.1,29.95,East,92,11.0,11.0,86,0.00,,,0.00,Wunderground v.1.15,2013-05-23 07:37:00,
2013-05-23 00:38:00,44.0,40.1,29.95,East,87,8.0,11.0,86,0.00,,,0.00,Wunderground v.1.15,2013-05-23 07:38:00,
2013-05-23 00:40:00,43.9,40.0,29.95,East,98,7.0,11.0,86,0.00,,,0.00,Wunderground v.1.15,2013-05-23 07:40:00,
2013-05-23 00:43:00,43.8,39.9,29.95,East,90,11.0,11.0,86,0.00,,,0.00,Wunderground v.1.15,2013-05-23 07:43:00,
2013-05-23 00:46:00,43.7,39.8,29.96,East,81,5.0,11.0,86,0.00,,,0.00,Wunderground v.1.15,2013-05-23 07:46:00,
2013-05-23 00:47:00,43.7,39.8,29.96,East,85,6.0,11.0,86,0.00,,,0.00,Wunderground v.1.15,2013-05-23 07:47:00,
2013-05-23 00:49:00,43.7,39.8,29.96,East,88,5.0,11.0,86,0.00,,,0.00,Wunderground v.1.15,2013-05-23 07:49:00,
2013-05-23 00:56:00,43.5,39.6,29.96,East,82,6.0,9.0,86,0.00,,,0.00,Wunderground v.1.15,2013-05-23 07:56:00,
2013-05-23 00:58:00,43.5,39.6,29.96,East,80,7.0,9.0,86,0.00,,,0.00,Wunderground v.1.15,2013-05-23 07:58:00,
2013-05-23 01:02:00,43.3,39.4,29.96,East,95,7.0,7.0,86,0.00,,,0.00,Wunderground v.1.15,2013-05-23 08:02:00,
2013-05-23 01:03:00,43.3,39.4,29.96,East,96,6.0,7.0,86,0.00,,,0.00,Wunderground v.1.15,2013-05-23 08:03:00,
2013-05-23 01:05:00,43.3,39.4,29.96,East,101,5.0,7.0,86,0.00,,,0.00,Wunderground v.1.15,2013-05-23 08:05:00,
2013-05-23 01:08:00,43.2,39.3,29.96,East,82,5.0,7.0,86,0.00,,,0.00,Wunderground v.1.15,2013-05-23 08:08:00,
2013-05-23 01:09:00,43.2,39.3,29.96,East,82,4.0,7.0,86,0.00,,,0.00,Wunderground v.1.15,2013-05-23 08:09:00,
2013-05-23 01:11:00,43.1,39.2,29.96,East,84,7.0,7.0,86,0.00,,,0.00,Wunderground v.1.15,2013-05-23 08:11:00,
2013-05-23 01:16:00,43.0,39.1,29.96,ENE,78,10.0,10.0,86,0.00,,,0.00,Wunderground v.1.15,2013-05-23 08:16:00,
2013-05-23 01:17:00,43.0,39.1,29.96,ENE,65,8.0,10.0,86,0.00,,,0.00,Wunderground v.1.15,2013-05-23 08:17:00,
2013-05-23 01:18:00,42.9,39.0,29.96,ENE,63,11.0,11.0,86,0.00,,,0.00,Wunderground v.1.15,2013-05-23 08:18:00,
2013-05-23 01:20:00,42.9,39.0,29.97,ENE,61,8.0,11.0,86,0.00,,,0.00,Wunderground v.1.15,2013-05-23 08:20:00,
2013-05-23 01:23:00,42.8,39.2,29.97,ENE,68,7.0,8.0,87,0.00,,,0.00,Wunderground v.1.15,2013-05-23 08:23:00,
2013-05-23 01:25:00,42.7,39.1,29.97,ENE,69,10.0,10.0,87,0.00,,,0.00,Wunderground v.1.15,2013-05-23 08:25:00,
2013-05-23 01:26:00,42.7,39.1,29.97,ENE,68,10.0,10.0,87,0.00,,,0.00,Wunderground v.1.15,2013-05-23 08:26:00,
2013-05-23 01:27:00,42.7,39.1,29.97,ENE,74,8.0,10.0,87,0.00,,,0.00,Wunderground v.1.15,2013-05-23 08:27:00,
2013-05-23 01:31:00,42.6,39.0,29.97,East,83,7.0,10.0,87,0.00,,,0.00,Wunderground v.1.15,2013-05-23 08:31:00,
2013-05-23 01:34:00,42.4,38.8,29.97,East,79,8.0,8.0,87,0.00,,,0.00,Wunderground v.1.15,2013-05-23 08:34:00,
2013-05-23 01:36:00,42.4,38.8,29.97,East,82,7.0,8.0,87,0.00,,,0.00,Wunderground v.1.15,2013-05-23 08:36:00,
2013-05-23 01:38:00,42.4,38.8,29.97,East,85,4.0,8.0,87,0.00,,,0.00,Wunderground v.1.15,2013-05-23 08:38:00,
2013-05-23 01:40:00,42.3,38.7,29.97,East,86,4.0,8.0,87,0.00,,,0.00,Wunderground v.1.15,2013-05-23 08:40:00,
2013-05-23 01:41:00,42.3,38.7,29.97,East,87,6.0,8.0,87,0.00,,,0.00,Wunderground v.1.15,2013-05-23 08:41:00,
2013-05-23 01:43:00,42.3,38.7,29.97,East,84,4.0,6.0,87,0.00,,,0.00,Wunderground v.1.15,2013-05-23 08:43:00,
2013-05-23 01:44:00,42.3,39.0,29.97,East,83,4.0,6.0,88,0.00,,,0.00,Wunderground v.1.15,2013-05-23 08:44:00,
2013-05-23 01:48:00,42.2,38.9,29.97,East,81,5.0,6.0,88,0.00,,,0.00,Wunderground v.1.15,2013-05-23 08:48:00,
2013-05-23 01:49:00,42.2,38.9,29.97,East,80,6.0,6.0,88,0.00,,,0.00,Wunderground v.1.15,2013-05-23 08:49:00,
2013-05-23 01:50:00,42.2,38.9,29.97,East,82,6.0,6.0,88,0.00,,,0.00,Wunderground v.1.15,2013-05-23 08:50:00,
2013-05-23 01:51:00,42.1,38.8,29.97,East,84,4.0,6.0,88,0.00,,,0.00,Wunderground v.1.15,2013-05-23 08:51:00,
2013-05-23 01:55:00,41.9,38.6,29.97,East,86,5.0,8.0,88,0.00,,,0.00,Wunderground v.1.15,2013-05-23 08:55:00,
2013-05-23 02:00:00,41.9,38.6,29.97,East,84,4.0,8.0,88,0.00,,,0.00,Wunderground v.1.15,2013-05-23 09:00:00,
2013-05-23 02:05:00,41.9,38.9,29.98,East,83,6.0,8.0,89,0.00,,,0.00,Wunderground v.1.15,2013-05-23 09:05:00,
2013-05-23 02:10:00,41.9,38.9,29.98,East,86,5.0,8.0,89,0.00,,,0.00,Wunderground v.1.15,2013-05-23 09:10:00,
2013-05-23 02:15:00,42.1,39.1,29.98,East,84,6.0,8.0,89,0.00,,,0.00,Wunderground v.1.15,2013-05-23 09:15:00,
2013-05-23 02:20:00,42.1,39.1,29.98,East,80,5.0,8.0,89,0.00,,,0.00,Wunderground v.1.15,2013-05-23 09:20:00,
2013-05-23 02:25:00,42.0,39.0,29.98,East,80,5.0,7.0,89,0.00,,,0.00,Wunderground v.1.15,2013-05-23 09:25:00,
2013-05-23 02:30:00,41.9,38.9,29.98,ENE,78,5.0,7.0,89,0.00,,,0.00,Wunderground v.1.15,2013-05-23 09:30:00,
2013-05-23 02:35:00,41.8,38.8,29.98,ENE,72,4.0,6.0,89,0.00,,,0.00,Wunderground v.1.15,2013-05-23 09:35:00,
2013-05-23 02:40:00,41.7,38.7,29.98,ENE,68,5.0,6.0,89,0.00,,,0.00,Wunderground v.1.15,2013-05-23 09:40:00,
2013-05-23 02:45:00,41.7,38.7,29.99,ENE,74,5.0,7.0,89,0.00,,,0.00,Wunderground v.1.15,2013-05-23 09:45:00,
2013-05-23 02:50:00,41.6,38.6,29.99,ENE,74,7.0,8.0,89,0.00,,,0.00,Wunderground v.1.15,2013-05-23 09:50:00,
2013-05-23 02:55:00,41.5,38.5,29.99,ENE,74,8.0,10.0,89,0.00,,,0.00,Wunderground v.1.15,2013-05-23 09:55:00,
2013-05-23 03:00:00,41.7,38.7,29.99,ENE,71,10.0,12.0,89,0.00,,,0.00,Wunderground v.1.15,2013-05-23 10:00:00,
2013-05-23 03:05:00,41.8,38.5,29.99,ENE,71,11.0,12.0,88,0.00,,,0.00,Wunderground v.1.15,2013-05-23 10:05:00,
2013-05-23 03:10:00,41.8,38.2,29.99,ENE,71,10.0,13.0,87,0.00,,,0.00,Wunderground v.1.15,2013-05-23 10:10:00,
2013-05-23 03:15:00,41.6,38.0,29.98,ENE,68,11.0,13.0,87,0.00,,,0.00,Wunderground v.1.15,2013-05-23 10:15:00,
2013-05-23 03:20:00,41.7,38.1,29.99,East,80,5.0,13.0,87,0.00,,,0.00,Wunderground v.1.15,2013-05-23 10:20:00,
2013-05-23 03:25:00,41.4,37.8,29.99,East,88,7.0,8.0,87,0.00,,,0.00,Wunderground v.1.15,2013-05-23 10:25:00,
2013-05-23 03:30:00,41.2,37.6,29.99,East,85,7.0,10.0,87,0.00,,,0.00,Wunderground v.1.15,2013-05-23 10:30:00,
2013-05-23 03:35:00,41.1,37.5,29.99,East,84,7.0,8.0,87,0.00,,,0.00,Wunderground v.1.15,2013-05-23 10:35:00,
2013-05-23 03:40:00,41.0,37.4,29.99,East,82,6.0,10.0,87,0.00,,,0.00,Wunderground v.1.15,2013-05-23 10:40:00,
2013-05-23 03:45:00,40.9,37.6,29.99,East,90,9.0,11.0,88,0.00,,,0.00,Wunderground v.1.15,2013-05-23 10:45:00,
2013-05-23 03:50:00,41.0,37.4,29.99,East,89,6.0,11.0,87,0.00,,,0.00,Wunderground v.1.15,2013-05-23 10:50:00,
2013-05-23 03:55:00,41.0,37.4,29.99,East,83,5.0,8.0,87,0.00,,,0.00,Wunderground v.1.15,2013-05-23 10:55:00,
2013-05-23 04:00:00,41.1,37.8,29.99,East,80,5.0,8.0,88,0.00,,,0.00,Wunderground v.1.15,2013-05-23 11:00:00,
2013-05-23 04:02:00,41.0,37.4,29.99,East,83,7.0,7.0,87,0.00,,,0.00,Wunderground v.1.15,2013-05-23 11:02:00,
2013-05-23 04:03:00,41.0,37.4,29.99,East,83,6.0,7.0,87,0.00,,,0.00,Wunderground v.1.15,2013-05-23 11:03:00,
2013-05-23 04:08:00,40.9,37.6,29.99,East,83,6.0,8.0,88,0.00,,,0.00,Wunderground v.1.15,2013-05-23 11:08:00,
2013-05-23 04:13:00,40.7,37.4,29.99,East,82,6.0,7.0,88,0.00,,,0.00,Wunderground v.1.15,2013-05-23 11:13:00,
2013-05-23 04:18:00,40.7,37.4,29.99,ENE,69,6.0,8.0,88,0.00,,,0.00,Wunderground v.1.15,2013-05-23 11:18:00,
2013-05-23 04:23:00,40.7,37.4,29.99,ENE,71,8.0,10.0,88,0.00,,,0.00,Wunderground v.1.15,2013-05-23 11:23:00,
2013-05-23 04:28:00,40.8,37.5,29.99,ENE,76,7.0,10.0,88,0.00,,,0.00,Wunderground v.1.15,2013-05-23 11:28:00,
2013-05-23 04:33:00,40.6,37.3,29.99,East,79,5.0,7.0,88,0.00,,,0.00,Wunderground v.1.15,2013-05-23 11:33:00,
2013-05-23 04:38:00,40.6,37.3,29.99,ENE,76,5.0,7.0,88,0.00,,,0.00,Wunderground v.1.15,2013-05-23 11:38:00,
2013-05-23 04:43:00,40.6,37.3,29.98,ENE,74,7.0,7.0,88,0.00,,,0.00,Wunderground v.1.15,2013-05-23 11:43:00,
2013-05-23 04:48:00,40.7,37.4,29.99,ENE,69,7.0,8.0,88,0.00,,,0.00,Wunderground v.1.15,2013-05-23 11:48:00,
2013-05-23 04:53:00,40.7,37.4,29.99,ENE,76,5.0,6.0,88,0.00,,,0.00,Wunderground v.1.15,2013-05-23 11:53:00,
2013-05-23 04:58:00,40.5,36.9,29.99,ENE,77,2.0,6.0,87,0.00,,,0.00,Wunderground v.1.15,2013-05-23 11:58:00,
2013-05-23 05:03:00,40.4,37.1,29.99,ENE,74,4.0,4.0,88,0.00,,,0.00,Wunderground v.1.15,2013-05-23 12:03:00,
2013-05-23 05:08:00,40.5,37.2,29.99,ENE,75,4.0,5.0,88,0.00,,,0.00,Wunderground v.1.15,2013-05-23 12:08:00,
2013-05-23 05:13:00,40.5,37.2,29.99,ENE,75,3.0,4.0,88,0.00,,,0.00,Wunderground v.1.15,2013-05-23 12:13:00,
2013-05-23 05:18:00,40.6,37.3,29.98,ENE,71,2.0,4.0,88,0.00,,,0.00,Wunderground v.1.15,2013-05-23 12:18:00,
2013-05-23 05:23:00,40.3,36.7,29.98,ENE,71,3.0,3.0,87,0.00,,,0.00,Wunderground v.1.15,2013-05-23 12:23:00,
2013-05-23 05:28:00,40.0,36.7,29.98,ENE,69,3.0,4.0,88,0.00,,,0.00,Wunderground v.1.15,2013-05-23 12:28:00,
2013-05-23 05:29:00,40.0,36.7,29.98,ENE,68,3.0,4.0,88,0.00,,,0.00,Wunderground v.1.15,2013-05-23 12:29:00,
2013-05-23 05:33:00,39.9,36.6,29.98,ENE,65,4.0,5.0,88,0.00,,,0.00,Wunderground v.1.15,2013-05-23 12:33:00,
2013-05-23 05:38:00,40.2,37.2,29.99,ENE,64,3.0,5.0,89,0.00,,,0.00,Wunderground v.1.15,2013-05-23 12:38:00,
2013-05-23 05:43:00,40.5,37.2,29.99,ENE,64,5.0,5.0,88,0.00,,,0.00,Wunderground v.1.15,2013-05-23 12:43:00,
2013-05-23 05:48:00,40.6,37.3,29.99,ENE,64,2.0,5.0,88,0.00,,,0.00,Wunderground v.1.15,2013-05-23 12:48:00,
2013-05-23 05:53:00,40.8,37.5,29.99,ENE,64,2.0,3.0,88,0.00,,,0.00,Wunderground v.1.15,2013-05-23 12:53:00,
2013-05-23 05:58:00,41.1,37.8,29.99,ENE,64,2.0,4.0,88,0.00,,,0.00,Wunderground v.1.15,2013-05-23 12:58:00,
2013-05-23 06:03:00,41.5,37.9,29.99,ENE,64,1.0,3.0,87,0.00,,,0.00,Wunderground v.1.15,2013-05-23 13:03:00,
2013-05-23 06:08:00,41.9,38.6,29.99,ENE,64,0.0,3.0,88,0.00,,,0.00,Wunderground v.1.15,2013-05-23 13:08:00,
2013-05-23 06:13:00,42.4,38.8,30.00,ENE,64,3.0,3.0,87,0.00,,,0.00,Wunderground v.1.15,2013-05-23 13:13:00,
2013-05-23 06:18:00,42.8,39.2,30.00,ENE,64,0.0,3.0,87,0.00,,,0.00,Wunderground v.1.15,2013-05-23 13:18:00,
2013-05-23 06:23:00,43.3,39.4,30.00,ENE,64,4.0,5.0,86,0.00,,,0.00,Wunderground v.1.15,2013-05-23 13:23:00,
2013-05-23 06:28:00,43.3,39.1,30.00,ENE,64,2.0,5.0,85,0.00,,,0.00,Wunderground v.1.15,2013-05-23 13:28:00,
2013-05-23 06:33:00,43.3,39.4,30.00,ENE,64,4.0,5.0,86,0.00,,,0.00,Wunderground v.1.15,2013-05-23 13:33:00,
2013-05-23 06:38:00,43.4,39.2,30.00,ENE,64,5.0,5.0,85,0.00,,,0.00,Wunderground v.1.15,2013-05-23 13:38:00,
2013-05-23 06:43:00,43.6,39.4,30.00,ENE,64,3.0,5.0,85,0.00,,,0.00,Wunderground v.1.15,2013-05-23 13:43:00,
2013-05-23 06:48:00,43.8,39.3,30.01,East,79,3.0,8.0,84,0.00,,,0.00,Wunderground v.1.15,2013-05-23 13:48:00,
2013-05-23 06:53:00,44.0,39.5,30.01,East,94,9.0,11.0,84,0.00,,,0.00,Wunderground v.1.15,2013-05-23 13:53:00,
2013-05-23 06:58:00,44.0,39.2,30.01,East,90,8.0,11.0,83,0.00,,,0.00,Wunderground v.1.15,2013-05-23 13:58:00,
2013-05-23 07:03:00,44.1,39.3,30.01,East,94,11.0,11.0,83,0.00,,,0.00,Wunderground v.1.15,2013-05-23 14:03:00,
2013-05-23 07:08:00,44.2,39.4,30.01,East,90,9.0,13.0,83,0.00,,,0.00,Wunderground v.1.15,2013-05-23 14:08:00,
2013-05-23 07:13:00,44.2,39.1,30.01,East,82,10.0,11.0,82,0.00,,,0.00,Wunderground v.1.15,2013-05-23 14:13:00,
2013-05-23 07:18:00,44.4,39.2,30.01,East,83,7.0,11.0,82,0.00,,,0.00,Wunderground v.1.15,2013-05-23 14:18:00,
2013-05-23 07:23:00,44.5,39.0,30.01,East,88,8.0,8.0,81,0.00,,,0.00,Wunderground v.1.15,2013-05-23 14:23:00,
2013-05-23 07:28:00,44.6,39.4,30.01,East,86,8.0,10.0,82,0.00,,,0.00,Wunderground v.1.15,2013-05-23 14:28:00,
2013-05-23 07:33:00,44.6,39.1,30.00,ENE,76,8.0,11.0,81,0.00,,,0.00,Wunderground v.1.15,2013-05-23 14:33:00,
2013-05-23 07:38:00,44.8,39.6,30.00,East,82,11.0,11.0,82,0.00,,,0.00,Wunderground v.1.15,2013-05-23 14:38:00,
2013-05-23 07:43:00,44.8,39.3,30.01,East,86,6.0,11.0,81,0.00,,,0.00,Wunderground v.1.15,2013-05-23 14:43:00,
2013-05-23 07:48:00,45.5,40.0,30.01,East,92,8.0,11.0,81,0.00,,,0.00,Wunderground v.1.15,2013-05-23 14:48:00,
2013-05-23 07:53:00,45.9,40.1,30.01,East,96,5.0,9.0,80,0.00,,,0.00,Wunderground v.1.15,2013-05-23 14:53:00,
2013-05-23 07:58:00,46.0,39.9,30.01,ESE,105,11.0,11.0,79,0.00,,,0.00,Wunderground v.1.15,2013-05-23 14:58:00,
2013-05-23 08:03:00,45.8,39.7,30.01,East,98,7.0,8.0,79,0.00,,,0.00,Wunderground v.1.15,2013-05-23 15:03:00,
2013-05-23 08:08:00,45.8,39.3,30.01,East,100,5.0,9.0,78,0.00,,,0.00,Wunderground v.1.15,2013-05-23 15:08:00,
2013-05-23 08:13:00,46.0,39.5,30.01,ESE,115,9.0,12.0,78,0.00,,,0.00,Wunderground v.1.15,2013-05-23 15:13:00,
2013-05-23 08:18:00,46.0,39.5,30.01,ESE,115,8.0,12.0,78,0.00,,,0.00,Wunderground v.1.15,2013-05-23 15:18:00,
2013-05-23 08:23:00,46.1,39.6,30.01,ESE,109,7.0,7.0,78,0.00,,,0.00,Wunderground v.1.15,2013-05-23 15:23:00,
2013-05-23 08:28:00,46.1,39.6,30.01,ESE,104,4.0,9.0,78,0.00,,,0.00,Wunderground v.1.15,2013-05-23 15:28:00,
2013-05-23 08:33:00,46.3,40.1,30.02,ESE,104,5.0,8.0,79,0.00,,,0.00,Wunderground v.1.15,2013-05-23 15:33:00,
2013-05-23 08:38:00,46.5,40.0,30.02,ESE,104,7.0,8.0,78,0.00,,,0.00,Wunderground v.1.15,2013-05-23 15:38:00,
2013-05-23 08:43:00,46.7,40.2,30.01,ESE,113,6.0,7.0,78,0.00,,,0.00,Wunderground v.1.15,2013-05-23 15:43:00,
2013-05-23 08:48:00,46.8,40.3,30.01,ESE,103,7.0,9.0,78,0.00,,,0.00,Wunderground v.1.15,2013-05-23 15:48:00,
2013-05-23 08:53:00,47.2,40.7,30.01,ESE,103,8.0,8.0,78,0.00,,,0.00,Wunderground v.1.15,2013-05-23 15:53:00,
2013-05-23 08:58:00,47.6,40.4,30.01,ESE,109,6.0,11.0,76,0.00,,,0.00,Wunderground v.1.15,2013-05-23 15:58:00,
2013-05-23 09:03:00,47.8,40.3,30.01,East,97,7.0,11.0,75,0.00,,,0.00,Wunderground v.1.15,2013-05-23 16:03:00,
2013-05-23 09:08:00,47.8,40.6,30.01,ENE,78,11.0,11.0,76,0.00,,,0.00,Wunderground v.1.15,2013-05-23 16:08:00,
2013-05-23 09:13:00,47.6,40.1,30.01,East,81,4.0,11.0,75,0.00,,,0.00,Wunderground v.1.15,2013-05-23 16:13:00,
2013-05-23 09:18:00,47.9,40.4,30.01,ENE,76,4.0,11.0,75,0.00,,,0.00,Wunderground v.1.15,2013-05-23 16:18:00,
2013-05-23 09:23:00,48.1,40.2,30.01,East,83,4.0,7.0,74,0.00,,,0.00,Wunderground v.1.15,2013-05-23 16:23:00,
2013-05-23 09:28:00,48.4,40.5,30.01,East,99,6.0,11.0,74,0.00,,,0.00,Wunderground v.1.15,2013-05-23 16:28:00,
2013-05-23 09:33:00,48.6,40.7,30.01,East,82,7.0,10.0,74,0.00,,,0.00,Wunderground v.1.15,2013-05-23 16:33:00,
2013-05-23 09:38:00,48.7,40.4,30.01,East,91,6.0,11.0,73,0.00,,,0.00,Wunderground v.1.15,2013-05-23 16:38:00,
2013-05-23 09:43:00,49.4,41.1,30.01,East,95,7.0,7.0,73,0.00,,,0.00,Wunderground v.1.15,2013-05-23 16:43:00,
2013-05-23 09:48:00,49.4,40.7,30.01,ESE,102,2.0,11.0,72,0.00,,,0.00,Wunderground v.1.15,2013-05-23 16:48:00,
2013-05-23 09:53:00,49.5,40.1,30.01,ESE,111,7.0,11.0,70,0.00,,,0.00,Wunderground v.1.15,2013-05-23 16:53:00,
2013-05-23 09:58:00,49.4,39.7,30.01,SE,134,9.0,13.0,69,0.00,,,0.00,Wunderground v.1.15,2013-05-23 16:58:00,
2013-05-23 10:03:00,49.7,40.3,30.01,SE,136,6.0,8.0,70,0.00,,,0.00,Wunderground v.1.15,2013-05-23 17:03:00,
2013-05-23 10:08:00,49.8,40.8,30.01,SE,145,2.0,13.0,71,0.00,,,0.00,Wunderground v.1.15,2013-05-23 17:08:00,
2013-05-23 10:13:00,50.1,40.7,30.01,SSE,153,8.0,11.0,70,0.00,,,0.00,Wunderground v.1.15,2013-05-23 17:13:00,
2013-05-23 10:18:00,50.2,40.4,30.01,SSE,152,7.0,11.0,69,0.00,,,0.00,Wunderground v.1.15,2013-05-23 17:18:00,
2013-05-23 10:23:00,50.1,39.6,30.00,SSE,150,5.0,7.0,67,0.00,,,0.00,Wunderground v.1.15,2013-05-23 17:23:00,
2013-05-23 10:28:00,50.2,39.7,30.00,SSE,147,7.0,11.0,67,0.00,,,0.00,Wunderground v.1.15,2013-05-23 17:28:00,
2013-05-23 10:33:00,50.4,40.6,30.00,SSE,147,7.0,9.0,69,0.00,,,0.00,Wunderground v.1.15,2013-05-23 17:33:00,
2013-05-23 10:38:00,50.9,40.3,30.00,SSE,148,9.0,10.0,67,0.00,,,0.00,Wunderground v.1.15,2013-05-23 17:38:00,
2013-05-23 10:40:00,50.8,39.8,30.00,SE,145,6.0,10.0,66,0.00,,,0.00,Wunderground v.1.15,2013-05-23 17:40:00,
2013-05-23 10:43:00,51.0,40.4,30.00,SE,146,0.0,6.0,67,0.00,,,0.00,Wunderground v.1.15,2013-05-23 17:43:00,
2013-05-23 10:48:00,51.5,39.3,30.00,SSE,149,2.0,10.0,63,0.00,,,0.00,Wunderground v.1.15,2013-05-23 17:48:00,
2013-05-23 10:53:00,51.9,40.1,30.00,SSE,149,7.0,8.0,64,0.00,,,0.00,Wunderground v.1.15,2013-05-23 17:53:00,
2013-05-23 10:58:00,51.8,38.8,30.00,SSE,149,1.0,9.0,61,0.00,,,0.00,Wunderground v.1.15,2013-05-23 17:58:00,
2013-05-23 11:04:00,52.8,38.9,30.00,SSE,163,2.0,6.0,59,0.00,,,0.00,Wunderground v.1.15,2013-05-23 18:04:00,
2013-05-23 11:09:00,53.5,39.1,30.00,SSE,163,1.0,6.0,58,0.00,,,0.00,Wunderground v.1.15,2013-05-23 18:09:00,
2013-05-23 11:14:00,53.3,38.9,30.00,SSE,163,2.0,5.0,58,0.00,,,0.00,Wunderground v.1.15,2013-05-23 18:14:00,
2013-05-23 11:19:00,53.7,40.1,30.00,SSE,159,9.0,9.0,60,0.00,,,0.00,Wunderground v.1.15,2013-05-23 18:19:00,
2013-05-23 11:24:00,54.0,39.5,30.00,South,181,6.0,10.0,58,0.00,,,0.00,Wunderground v.1.15,2013-05-23 18:24:00,
2013-05-23 11:29:00,53.9,40.3,30.00,South,185,8.0,13.0,60,0.00,,,0.00,Wunderground v.1.15,2013-05-23 18:29:00,
2013-05-23 11:34:00,53.9,39.9,30.00,SSE,165,1.0,9.0,59,0.00,,,0.00,Wunderground v.1.15,2013-05-23 18:34:00,
2013-05-23 11:39:00,54.1,39.6,30.00,SSE,165,4.0,9.0,58,0.00,,,0.00,Wunderground v.1.15,2013-05-23 18:39:00,
2013-05-23 11:44:00,53.5,40.8,30.00,SSW,205,2.0,9.0,62,0.00,,,0.00,Wunderground v.1.15,2013-05-23 18:44:00,
2013-05-23 11:49:00,53.5,40.4,30.00,SSW,197,9.0,9.0,61,0.00,,,0.00,Wunderground v.1.15,2013-05-23 18:49:00,
2013-05-23 11:54:00,54.0,40.8,30.00,South,184,7.0,10.0,61,0.00,,,0.00,Wunderground v.1.15,2013-05-23 18:54:00,
2013-05-23 11:59:00,54.3,40.3,29.99,South,184,2.0,10.0,59,0.00,,,0.00,Wunderground v.1.15,2013-05-23 18:59:00,
2013-05-23 12:04:00,54.3,40.3,29.99,South,184,4.0,5.0,59,0.00,,,0.00,Wunderground v.1.15,2013-05-23 19:04:00,
2013-05-23 12:09:00,54.0,39.5,29.99,SSW,202,9.0,12.0,58,0.00,,,0.00,Wunderground v.1.15,2013-05-23 19:09:00,
2013-05-23 12:14:00,53.8,39.8,29.99,SSW,202,5.0,8.0,59,0.00,,,0.00,Wunderground v.1.15,2013-05-23 19:14:00,
2013-05-23 12:19:00,54.0,40.0,29.99,SSW,207,11.0,12.0,59,0.00,,,0.00,Wunderground v.1.15,2013-05-23 19:19:00,
2013-05-23 12:24:00,54.3,39.8,29.99,SSW,193,7.0,8.0,58,0.00,,,0.00,Wunderground v.1.15,2013-05-23 19:24:00,
2013-05-23 12:29:00,54.6,40.1,29.99,South,178,11.0,11.0,58,0.00,,,0.00,Wunderground v.1.15,2013-05-23 19:29:00,
2013-05-23 12:34:00,54.2,39.7,29.99,SSE,158,1.0,9.0,58,0.00,,,0.00,Wunderground v.1.15,2013-05-23 19:34:00,
2013-05-23 12:38:00,54.3,39.8,29.99,SSE,165,5.0,9.0,58,0.00,,,0.00,Wunderground v.1.15,2013-05-23 19:38:00,
2013-05-23 12:39:00,54.3,39.8,29.99,South,170,7.0,9.0,58,0.00,,,0.00,Wunderground v.1.15,2013-05-23 19:39:00,
2013-05-23 12:44:00,54.7,39.3,29.98,South,184,5.0,7.0,56,0.00,,,0.00,Wunderground v.1.15,2013-05-23 19:44:00,
2013-05-23 12:49:00,55.0,39.6,29.98,South,184,8.0,10.0,56,0.00,,,0.00,Wunderground v.1.15,2013-05-23 19:49:00,
2013-05-23 12:54:00,55.1,39.7,29.98,South,173,4.0,10.0,56,0.00,,,0.00,Wunderground v.1.15,2013-05-23 19:54:00,
2013-05-23 12:59:00,55.8,39.9,29.98,SSW,207,5.0,10.0,55,0.00,,,0.00,Wunderground v.1.15,2013-05-23 19:59:00,
2013-05-23 13:04:00,55.9,38.5,29.98,SSE,157,4.0,10.0,52,0.00,,,0.00,Wunderground v.1.15,2013-05-23 20:04:00,
2013-05-23 13:09:00,55.7,38.8,29.98,SE,140,1.0,10.0,53,0.00,,,0.00,Wunderground v.1.15,2013-05-23 20:09:00,
2013-05-23 13:14:00,56.5,39.1,29.98,SE,146,2.0,4.0,52,0.00,,,0.00,Wunderground v.1.15,2013-05-23 20:14:00,
2013-05-23 13:19:00,56.0,39.1,29.98,SW,223,4.0,12.0,53,0.00,,,0.00,Wunderground v.1.15,2013-05-23 20:19:00,
2013-05-23 13:24:00,56.2,39.8,29.98,South,185,3.0,6.0,54,0.00,,,0.00,Wunderground v.1.15,2013-05-23 20:24:00,
2013-05-23 13:29:00,56.7,39.7,29.98,South,175,7.0,7.0,53,0.00,,,0.00,Wunderground v.1.15,2013-05-23 20:29:00,
2013-05-23 13:34:00,57.2,39.7,29.97,SSW,204,5.0,7.0,52,0.00,,,0.00,Wunderground v.1.15,2013-05-23 20:34:00,
2013-05-23 13:39:00,57.3,39.3,29.97,SSW,211,6.0,12.0,51,0.00,,,0.00,Wunderground v.1.15,2013-05-23 20:39:00,
2013-05-23 13:44:00,56.9,38.4,29.97,South,170,4.0,8.0,50,0.00,,,0.00,Wunderground v.1.15,2013-05-23 20:44:00,
2013-05-23 13:49:00,56.6,38.7,29.97,SSE,166,2.0,10.0,51,0.00,,,0.00,Wunderground v.1.15,2013-05-23 20:49:00,
2013-05-23 13:54:00,56.2,38.8,29.97,SE,142,2.0,6.0,52,0.00,,,0.00,Wunderground v.1.15,2013-05-23 20:54:00,
2013-05-23 13:59:00,56.1,38.7,29.97,SE,139,2.0,6.0,52,0.00,,,0.00,Wunderground v.1.15,2013-05-23 20:59:00,
2013-05-23 14:04:00,56.5,39.1,29.97,SSE,150,5.0,7.0,52,0.00,,,0.00,Wunderground v.1.15,2013-05-23 21:04:00,
2013-05-23 14:09:00,56.7,38.3,29.97,SE,134,2.0,7.0,50,0.00,,,0.00,Wunderground v.1.15,2013-05-23 21:09:00,
2013-05-23 14:14:00,57.2,38.2,29.97,SE,131,2.0,6.0,49,0.00,,,0.00,Wunderground v.1.15,2013-05-23 21:14:00,
2013-05-23 14:19:00,57.2,38.2,29.97,SSE,156,2.0,11.0,49,0.00,,,0.00,Wunderground v.1.15,2013-05-23 21:19:00,
2013-05-23 14:24:00,57.2,37.7,29.97,ESE,117,0.0,6.0,48,0.00,,,0.00,Wunderground v.1.15,2013-05-23 21:24:00,
2013-05-23 14:29:00,57.3,37.8,29.97,SE,135,8.0,12.0,48,0.00,,,0.00,Wunderground v.1.15,2013-05-23 21:29:00,
2013-05-23 14:34:00,57.2,38.2,29.97,South,173,2.0,10.0,49,0.00,,,0.00,Wunderground v.1.15,2013-05-23 21:34:00,
2013-05-23 14:39:00,57.4,38.4,29.97,SE,142,0.0,10.0,49,0.00,,,0.00,Wunderground v.1.15,2013-05-23 21:39:00,
2013-05-23 14:44:00,58.1,38.5,29.97,SE,142,0.0,3.0,48,0.00,,,0.00,Wunderground v.1.15,2013-05-23 21:44:00,
2013-05-23 14:49:00,58.4,36.6,29.97,SSW,202,4.0,8.0,44,0.00,,,0.00,Wunderground v.1.15,2013-05-23 21:49:00,
2013-05-23 14:54:00,57.9,36.7,29.97,SSW,195,2.0,4.0,45,0.00,,,0.00,Wunderground v.1.15,2013-05-23 21:54:00,
2013-05-23 14:59:00,57.5,35.7,29.97,SSW,213,0.0,6.0,44,0.00,,,0.00,Wunderground v.1.15,2013-05-23 21:59:00,
2013-05-23 15:04:00,57.3,36.7,29.97,SW,217,5.0,10.0,46,0.00,,,0.00,Wunderground v.1.15,2013-05-23 22:04:00,
2013-05-23 15:09:00,57.4,37.9,29.97,SSW,203,2.0,10.0,48,0.00,,,0.00,Wunderground v.1.15,2013-05-23 22:09:00,
2013-05-23 15:14:00,57.8,38.2,29.97,South,190,4.0,6.0,48,0.00,,,0.00,Wunderground v.1.15,2013-05-23 22:14:00,
2013-05-23 15:19:00,57.8,37.1,29.97,SSW,213,3.0,6.0,46,0.00,,,0.00,Wunderground v.1.15,2013-05-23 22:19:00,
2013-05-23 15:24:00,57.5,37.4,29.97,SW,229,5.0,7.0,47,0.00,,,0.00,Wunderground v.1.15,2013-05-23 22:24:00,
2013-05-23 15:29:00,57.3,37.2,29.97,SW,230,0.0,7.0,47,0.00,,,0.00,Wunderground v.1.15,2013-05-23 22:29:00,
2013-05-23 15:32:00,57.4,37.3,29.97,WSW,250,2.0,4.0,47,0.00,,,0.00,Wunderground v.1.15,2013-05-23 22:32:00,
2013-05-23 15:34:00,57.4,36.8,29.97,WSW,250,0.0,4.0,46,0.00,,,0.00,Wunderground v.1.15,2013-05-23 22:34:00,
2013-05-23 15:39:00,58.2,37.5,29.97,WSW,250,2.0,5.0,46,0.00,,,0.00,Wunderground v.1.15,2013-05-23 22:39:00,
2013-05-23 15:44:00,58.1,37.4,29.97,WSW,253,4.0,8.0,46,0.00,,,0.00,Wunderground v.1.15,2013-05-23 22:44:00,
2013-05-23 15:49:00,58.0,37.3,29.97,West,267,3.0,8.0,46,0.00,,,0.00,Wunderground v.1.15,2013-05-23 22:49:00,
2013-05-23 15:54:00,58.5,37.2,29.96,West,267,0.0,4.0,45,0.00,,,0.00,Wunderground v.1.15,2013-05-23 22:54:00,
2013-05-23 15:59:00,59.6,38.2,29.96,West,267,1.0,5.0,45,0.00,,,0.00,Wunderground v.1.15,2013-05-23 22:59:00,
2013-05-23 16:04:00,60.4,37.2,29.96,West,267,1.0,4.0,42,0.00,,,0.00,Wunderground v.1.15,2013-05-23 23:04:00,
2013-05-23 16:09:00,59.5,35.8,29.96,SSW,213,4.0,8.0,41,0.00,,,0.00,Wunderground v.1.15,2013-05-23 23:09:00,
2013-05-23 16:14:00,58.8,35.7,29.96,SSW,213,0.0,4.0,42,0.00,,,0.00,Wunderground v.1.15,2013-05-23 23:14:00,
2013-05-23 16:19:00,59.7,36.6,29.96,SSW,213,0.0,4.0,42,0.00,,,0.00,Wunderground v.1.15,2013-05-23 23:19:00,
2013-05-23 16:24:00,61.1,37.8,29.96,SSW,213,5.0,5.0,42,0.00,,,0.00,Wunderground v.1.15,2013-05-23 23:24:00,
2013-05-23 16:29:00,61.7,37.1,29.95,SSW,213,5.0,5.0,40,0.00,,,0.00,Wunderground v.1.15,2013-05-23 23:29:00,
2013-05-23 16:34:00,61.7,37.1,29.95,SSW,213,3.0,6.0,40,0.00,,,0.00,Wunderground v.1.15,2013-05-23 23:34:00,
2013-05-23 16:39:00,60.9,35.8,29.95,SSW,213,4.0,8.0,39,0.00,,,0.00,Wunderground v.1.15,2013-05-23 23:39:00,
2013-05-23 16:44:00,60.5,35.4,29.95,SSW,213,3.0,6.0,39,0.00,,,0.00,Wunderground v.1.15,2013-05-23 23:44:00,
2013-05-23 16:49:00,60.5,36.0,29.95,SSW,211,5.0,8.0,40,0.00,,,0.00,Wunderground v.1.15,2013-05-23 23:49:00,
2013-05-23 16:54:00,60.5,36.0,29.95,SSW,211,1.0,4.0,40,0.00,,,0.00,Wunderground v.1.15,2013-05-23 23:54:00,
2013-05-23 16:59:00,60.7,36.8,29.95,SW,220,4.0,6.0,41,0.00,,,0.00,Wunderground v.1.15,2013-05-23 23:59:00,
2013-05-23 17:04:00,60.3,36.5,29.95,SW,226,5.0,8.0,41,0.00,,,0.00,Wunderground v.1.15,2013-05-24 00:04:00,
2013-05-23 17:09:00,60.4,36.6,29.95,SW,226,1.0,8.0,41,0.00,,,0.00,Wunderground v.1.15,2013-05-24 00:09:00,
2013-05-23 17:14:00,60.7,36.2,29.95,SW,226,0.0,5.0,40,0.00,,,0.00,Wunderground v.1.15,2013-05-24 00:14:00,
2013-05-23 17:19:00,60.6,35.5,29.95,NW,309,3.0,7.0,39,0.00,,,0.00,Wunderground v.1.15,2013-05-24 00:19:00,
2013-05-23 17:24:00,60.8,35.7,29.94,NW,309,4.0,4.0,39,0.00,,,0.00,Wunderground v.1.15,2013-05-24 00:24:00,
2013-05-23 17:29:00,61.5,36.3,29.94,NW,309,0.0,4.0,39,0.00,,,0.00,Wunderground v.1.15,2013-05-24 00:29:00,
2013-05-23 17:34:00,62.5,37.2,29.94,NW,309,0.0,2.0,39,0.00,,,0.00,Wunderground v.1.15,2013-05-24 00:34:00,
2013-05-23 17:39:00,62.5,36.5,29.94,West,278,6.0,7.0,38,0.00,,,0.00,Wunderground v.1.15,2013-05-24 00:39:00,
2013-05-23 17:40:00,62.5,36.5,29.94,SW,234,7.0,8.0,38,0.00,,,0.00,Wunderground v.1.15,2013-05-24 00:40:00,
2013-05-23 17:45:00,61.7,36.5,29.94,South,190,5.0,8.0,39,0.00,,,0.00,Wunderground v.1.15,2013-05-24 00:45:00,
2013-05-23 17:50:00,60.9,36.4,29.94,South,190,3.0,8.0,40,0.00,,,0.00,Wunderground v.1.15,2013-05-24 00:50:00,
2013-05-23 17:55:00,60.5,36.0,29.94,South,170,11.0,11.0,40,0.00,,,0.00,Wunderground v.1.15,2013-05-24 00:55:00,
2013-05-23 18:00:00,60.2,35.1,29.94,SSE,167,7.0,11.0,39,0.00,,,0.00,Wunderground v.1.15,2013-05-24 01:00:00,
2013-05-23 18:05:00,60.1,35.0,29.94,South,171,7.0,11.0,39,0.00,,,0.00,Wunderground v.1.15,2013-05-24 01:05:00,
2013-05-23 18:10:00,60.1,35.7,29.94,South,173,7.0,11.0,40,0.00,,,0.00,Wunderground v.1.15,2013-05-24 01:10:00,
2013-05-23 18:15:00,60.1,35.7,29.94,South,172,4.0,11.0,40,0.00,,,0.00,Wunderground v.1.15,2013-05-24 01:15:00,
2013-05-23 18:20:00,59.8,35.4,29.93,SSE,166,2.0,11.0,40,0.00,,,0.00,Wunderground v.1.15,2013-05-24 01:20:00,
2013-05-23 18:25:00,59.7,37.2,29.94,SSE,167,1.0,8.0,43,0.00,,,0.00,Wunderground v.1.15,2013-05-24 01:25:00,
2013-05-23 18:30:00,60.0,35.6,29.93,South,177,5.0,9.0,40,0.00,,,0.00,Wunderground v.1.15,2013-05-24 01:30:00,
2013-05-23 18:35:00,59.7,35.9,29.93,South,177,7.0,8.0,41,0.00,,,0.00,Wunderground v.1.15,2013-05-24 01:35:00,
2013-05-23 18:40:00,59.3,36.8,29.93,South,178,2.0,9.0,43,0.00,,,0.00,Wunderground v.1.15,2013-05-24 01:40:00,
2013-05-23 18:45:00,59.2,37.3,29.93,South,178,2.0,6.0,44,0.00,,,0.00,Wunderground v.1.15,2013-05-24 01:45:00,
2013-05-23 18:50:00,59.1,36.6,29.94,South,178,2.0,6.0,43,0.00,,,0.00,Wunderground v.1.15,2013-05-24 01:50:00,
2013-05-23 18:53:00,58.9,37.6,29.94,South,178,4.0,5.0,45,0.00,,,0.00,Wunderground v.1.15,2013-05-24 01:53:00,
2013-05-23 18:58:00,58.2,40.1,29.94,WSW,256,5.0,7.0,51,0.00,,,0.00,Wunderground v.1.15,2013-05-24 01:58:00,
2013-05-23 19:03:00,57.6,40.6,29.93,WNW,290,4.0,7.0,53,0.00,,,0.00,Wunderground v.1.15,2013-05-24 02:03:00,
2013-05-23 19:08:00,57.2,40.7,29.94,WNW,292,6.0,7.0,54,0.00,,,0.00,Wunderground v.1.15,2013-05-24 02:08:00,
2013-05-23 19:13:00,56.9,41.8,29.94,WNW,296,6.0,6.0,57,0.00,,,0.00,Wunderground v.1.15,2013-05-24 02:13:00,
2013-05-23 19:18:00,56.2,42.5,29.93,WNW,298,5.0,7.0,60,0.00,,,0.00,Wunderground v.1.15,2013-05-24 02:18:00,
2013-05-23 19:23:00,55.7,42.5,29.93,WNW,298,4.0,5.0,61,0.00,,,0.00,Wunderground v.1.15,2013-05-24 02:23:00,
2013-05-23 19:28:00,55.7,42.9,29.94,WNW,298,4.0,6.0,62,0.00,,,0.00,Wunderground v.1.15,2013-05-24 02:28:00,
2013-05-23 19:33:00,55.5,43.1,29.94,WNW,298,5.0,5.0,63,0.00,,,0.00,Wunderground v.1.15,2013-05-24 02:33:00,
2013-05-23 19:38:00,55.6,43.2,29.94,WNW,298,5.0,5.0,63,0.00,,,0.00,Wunderground v.1.15,2013-05-24 02:38:00,
2013-05-23 19:43:00,55.5,44.3,29.94,WNW,298,4.0,4.0,66,0.00,,,0.00,Wunderground v.1.15,2013-05-24 02:43:00,
2013-05-23 19:48:00,55.3,43.7,29.94,WNW,299,5.0,6.0,65,0.00,,,0.00,Wunderground v.1.15,2013-05-24 02:48:00,
2013-05-23 19:53:00,55.0,43.8,29.94,WNW,300,5.0,5.0,66,0.00,,,0.00,Wunderground v.1.15,2013-05-24 02:53:00,
2013-05-23 19:58:00,54.8,43.3,29.94,WNW,300,4.0,6.0,65,0.00,,,0.00,Wunderground v.1.15,2013-05-24 02:58:00,
2013-05-23 20:03:00,54.6,43.5,29.93,WNW,300,4.0,5.0,66,0.00,,,0.00,Wunderground v.1.15,2013-05-24 03:03:00,
2013-05-23 20:08:00,54.3,44.0,29.93,WNW,300,3.0,5.0,68,0.00,,,0.00,Wunderground v.1.15,2013-05-24 03:08:00,
2013-05-23 20:13:00,54.4,43.3,29.94,WNW,300,6.0,6.0,66,0.00,,,0.00,Wunderground v.1.15,2013-05-24 03:13:00,
2013-05-23 20:18:00,54.4,42.5,29.93,WNW,301,3.0,7.0,64,0.00,,,0.00,Wunderground v.1.15,2013-05-24 03:18:00,
2013-05-23 20:23:00,54.3,42.0,29.93,WNW,301,4.0,6.0,63,0.00,,,0.00,Wunderground v.1.15,2013-05-24 03:23:00,
2013-05-23 20:28:00,53.7,42.6,29.93,WNW,301,4.0,6.0,66,0.00,,,0.00,Wunderground v.1.15,2013-05-24 03:28:00,
2013-05-23 20:33:00,53.2,42.9,29.93,WNW,301,3.0,4.0,68,0.00,,,0.00,Wunderground v.1.15,2013-05-24 03:33:00,
2013-05-23 20:38:00,52.6,43.1,29.93,WNW,301,3.0,4.0,70,0.00,,,0.00,Wunderground v.1.15,2013-05-24 03:38:00,
2013-05-23 20:43:00,52.6,42.7,29.94,WNW,301,3.0,4.0,69,0.00,,,0.00,Wunderground v.1.15,2013-05-24 03:43:00,
2013-05-23 20:48:00,52.7,42.4,29.94,WNW,301,4.0,5.0,68,0.00,,,0.00,Wunderground v.1.15,2013-05-24 03:48:00,
2013-05-23 20:53:00,52.9,42.2,29.93,WNW,301,3.0,4.0,67,0.00,,,0.00,Wunderground v.1.15,2013-05-24 03:53:00,
2013-05-23 20:58:00,52.8,42.1,29.94,WNW,301,5.0,5.0,67,0.00,,,0.00,Wunderground v.1.15,2013-05-24 03:58:00,
2013-05-23 21:01:00,52.7,42.0,29.93,WNW,301,5.0,5.0,67,0.00,,,0.00,Wunderground v.1.15,2013-05-24 04:01:00,
2013-05-23 21:06:00,52.5,41.5,29.93,WNW,301,4.0,6.0,66,0.00,,,0.00,Wunderground v.1.15,2013-05-24 04:06:00,
2013-05-23 21:11:00,51.9,41.3,29.93,NW,307,5.0,6.0,67,0.00,,,0.00,Wunderground v.1.15,2013-05-24 04:11:00,
2013-05-23 21:16:00,51.7,41.1,29.93,NW,321,5.0,7.0,67,0.00,,,0.00,Wunderground v.1.15,2013-05-24 04:16:00,
2013-05-23 21:21:00,51.5,40.9,29.94,NW,323,4.0,7.0,67,0.00,,,0.00,Wunderground v.1.15,2013-05-24 04:21:00,
2013-05-23 21:26:00,51.4,40.8,29.94,NW,323,2.0,5.0,67,0.00,,,0.00,Wunderground v.1.15,2013-05-24 04:26:00,
2013-05-23 21:31:00,51.3,40.7,29.94,NW,323,3.0,5.0,67,0.00,,,0.00,Wunderground v.1.15,2013-05-24 04:31:00,
2013-05-23 21:36:00,50.6,40.8,29.94,NW,323,4.0,5.0,69,0.00,,,0.00,Wunderground v.1.15,2013-05-24 04:36:00,
2013-05-23 21:38:00,50.3,40.5,29.93,NW,323,4.0,5.0,69,0.00,,,0.00,Wunderground v.1.15,2013-05-24 04:38:00,
2013-05-23 21:43:00,49.9,40.5,29.94,NNW,333,3.0,7.0,70,0.00,,,0.00,Wunderground v.1.15,2013-05-24 04:43:00,
2013-05-23 21:48:00,50.1,40.3,29.94,NNW,342,5.0,7.0,69,0.00,,,0.00,Wunderground v.1.15,2013-05-24 04:48:00,
2013-05-23 21:53:00,50.3,40.5,29.94,NNW,343,6.0,6.0,69,0.00,,,0.00,Wunderground v.1.15,2013-05-24 04:53:00,
2013-05-23 21:58:00,50.2,40.4,29.93,NNW,343,3.0,6.0,69,0.00,,,0.00,Wunderground v.1.15,2013-05-24 04:58:00,
2013-05-23 22:03:00,50.1,40.3,29.93,NNW,344,4.0,6.0,69,0.00,,,0.00,Wunderground v.1.15,2013-05-24 05:03:00,
2013-05-23 22:08:00,49.9,40.1,29.93,NNW,344,5.0,6.0,69,0.00,,,0.00,Wunderground v.1.15,2013-05-24 05:08:00,
2013-05-23 22:13:00,49.7,39.9,29.93,NNW,348,6.0,7.0,69,0.00,,,0.00,Wunderground v.1.15,2013-05-24 05:13:00,
2013-05-23 22:18:00,50.1,40.3,29.93,North,355,4.0,8.0,69,0.00,,,0.00,Wunderground v.1.15,2013-05-24 05:18:00,
2013-05-23 22:23:00,50.0,40.2,29.93,North,355,4.0,5.0,69,0.00,,,0.00,Wunderground v.1.15,2013-05-24 05:23:00,
2013-05-23 22:28:00,49.7,39.9,29.94,North,355,3.0,5.0,69,0.00,,,0.00,Wunderground v.1.15,2013-05-24 05:28:00,
2013-05-23 22:33:00,49.5,40.1,29.94,North,355,4.0,5.0,70,0.00,,,0.00,Wunderground v.1.15,2013-05-24 05:33:00,
2013-05-23 22:38:00,49.4,40.0,29.94,North,355,3.0,5.0,70,0.00,,,0.00,Wunderground v.1.15,2013-05-24 05:38:00,
2013-05-23 22:43:00,48.8,39.8,29.94,North,355,3.0,4.0,71,0.00,,,0.00,Wunderground v.1.15,2013-05-24 05:43:00,
2013-05-23 22:48:00,48.3,39.7,29.93,North,355,3.0,5.0,72,0.00,,,0.00,Wunderground v.1.15,2013-05-24 05:48:00,
2013-05-23 22:53:00,47.9,39.7,29.93,North,355,4.0,5.0,73,0.00,,,0.00,Wunderground v.1.15,2013-05-24 05:53:00,
2013-05-23 22:58:00,47.7,39.5,29.93,North,355,3.0,5.0,73,0.00,,,0.00,Wunderground v.1.15,2013-05-24 05:58:00,
2013-05-23 23:03:00,47.7,39.8,29.93,North,355,2.0,4.0,74,0.00,,,0.00,Wunderground v.1.15,2013-05-24 06:03:00,
2013-05-23 23:08:00,47.7,39.8,29.93,North,355,1.0,4.0,74,0.00,,,0.00,Wunderground v.1.15,2013-05-24 06:08:00,
2013-05-23 23:13:00,47.7,39.8,29.93,North,355,3.0,4.0,74,0.00,,,0.00,Wunderground v.1.15,2013-05-24 06:13:00,
2013-05-23 23:18:00,47.8,39.6,29.93,North,355,2.0,4.0,73,0.00,,,0.00,Wunderground v.1.15,2013-05-24 06:18:00,
2013-05-23 23:23:00,48.1,39.5,29.93,North,355,0.0,2.0,72,0.00,,,0.00,Wunderground v.1.15,2013-05-24 06:23:00,
2013-05-23 23:28:00,48.6,39.3,29.93,North,355,2.0,3.0,70,0.00,,,0.00,Wunderground v.1.15,2013-05-24 06:28:00,
2013-05-23 23:33:00,48.7,39.4,29.93,North,355,0.0,1.0,70,0.00,,,0.00,Wunderground v.1.15,2013-05-24 06:33:00,
2013-05-23 23:38:00,48.6,39.6,29.93,North,355,0.0,1.0,71,0.00,,,0.00,Wunderground v.1.15,2013-05-24 06:38:00,
2013-05-23 23:43:00,48.5,39.5,29.93,North,355,1.0,1.0,71,0.00,,,0.00,Wunderground v.1.15,2013-05-24 06:43:00,
2013-05-23 23:48:00,48.4,39.1,29.93,North,355,1.0,2.0,70,0.00,,,0.00,Wunderground v.1.15,2013-05-24 06:48:00,
2013-05-23 23:54:00,48.7,39.4,29.93,North,355,1.0,1.0,70,0.00,,,0.00,Wunderground v.1.15,2013-05-24 06:54:00,
2013-05-23 23:55:00,49.0,39.6,29.93,North,355,2.0,2.0,70,0.00,,,0.00,Wunderground v.1.15,2013-05-24 06:55:00,
2013-05-23 23:57:00,49.0,39.3,29.93,North,355,0.0,2.0,69,0.00,,,0.00,Wunderground v.1.15,2013-05-24 06:57:00,
2013-05-23 23:59:00,49.2,39.1,29.93,North,355,0.0,2.0,68,0.00,,,0.00,Wunderground v.1.15,2013-05-24 06:59:00,